Time;durP1;ratioP1;P1;durP2;ratioP2;P2;SDS_P1;SDS_P2;PMS_P1;PMS_P2;Temp;Humidity;BMP_temperature;BMP_pressure;BME280_temperature;BME280_humidity;BME280_pressure;Samples;Min_cycle;Max_cycle;Signal;HPM_P1;HPM_P2
2022/02/13 00:01:13;;;;;;;10.27;4.75;;;2.00;91.40;;;;;;5038914;28;20102;-69
2022/02/13 00:03:39;;;;;;;7.57;4.47;;;2.00;91.50;;;;;;5052677;28;20073;-69
2022/02/13 00:06:05;;;;;;;8.98;4.93;;;2.00;91.60;;;;;;5020504;28;20130;-70
2022/02/13 00:08:31;;;;;;;7.50;4.32;;;2.00;91.60;;;;;;5039648;28;20045;-69
2022/02/13 00:10:56;;;;;;;10.07;4.60;;;1.90;91.60;;;;;;5038493;28;20378;-69
2022/02/13 00:13:23;;;;;;;11.15;4.50;;;1.90;91.80;;;;;;5023471;28;20149;-69
2022/02/13 00:15:49;;;;;;;10.48;4.60;;;1.90;91.80;;;;;;5037371;28;20513;-69
2022/02/13 00:18:15;;;;;;;10.18;4.40;;;1.80;91.90;;;;;;5036759;28;20131;-69
2022/02/13 00:20:41;;;;;;;8.75;5.07;;;1.80;92.00;;;;;;5041580;28;20040;-69
2022/02/13 00:23:08;;;;;;;8.82;4.63;;;1.80;91.90;;;;;;5039114;28;20034;-69
2022/02/13 00:25:34;;;;;;;11.27;4.65;;;1.80;91.90;;;;;;5039204;28;20045;-70
2022/02/13 00:28:00;;;;;;;12.43;5.03;;;1.70;92.00;;;;;;5039182;28;20041;-69
2022/02/13 00:30:25;;;;;;;10.00;4.80;;;1.70;92.10;;;;;;5044646;28;20463;-70
2022/02/13 00:32:52;;;;;;;7.78;4.00;;;1.80;92.10;;;;;;5042896;28;20485;-69
2022/02/13 00:35:18;;;;;;;11.68;5.03;;;1.70;92.10;;;;;;5037133;28;20116;-69
2022/02/13 00:37:44;;;;;;;8.02;4.70;;;1.70;92.20;;;;;;5043495;28;20136;-69
2022/02/13 00:40:10;;;;;;;9.35;4.72;;;1.70;92.30;;;;;;5046302;28;20029;-69
2022/02/13 00:42:36;;;;;;;8.35;4.85;;;1.70;92.40;;;;;;5044103;28;20434;-69
2022/02/13 00:45:04;;;;;;;10.32;5.20;;;1.70;92.40;;;;;;5042301;28;20061;-69
2022/02/13 00:47:29;;;;;;;9.90;4.90;;;1.70;92.50;;;;;;5036449;28;20103;-69
2022/02/13 00:49:55;;;;;;;10.88;4.72;;;1.70;92.50;;;;;;5041971;28;20032;-69
2022/02/13 00:52:21;;;;;;;7.55;4.72;;;1.70;92.50;;;;;;5024611;28;20049;-69
2022/02/13 00:54:46;;;;;;;10.55;4.68;;;1.70;92.50;;;;;;5047315;28;20029;-69
2022/02/13 00:57:12;;;;;;;9.52;4.50;;;1.70;92.60;;;;;;5041834;28;20059;-69
2022/02/13 00:59:38;;;;;;;10.48;4.88;;;1.70;92.50;;;;;;5039883;28;20073;-69
2022/02/13 01:02:04;;;;;;;9.73;5.15;;;1.70;92.60;;;;;;5042939;28;20045;-69
2022/02/13 01:04:29;;;;;;;9.25;4.93;;;1.70;92.60;;;;;;5042557;28;20053;-70
2022/02/13 01:06:55;;;;;;;8.63;5.50;;;1.70;92.70;;;;;;5044715;28;20052;-70
2022/02/13 01:09:21;;;;;;;9.05;4.97;;;1.60;92.60;;;;;;5040301;28;20056;-70
2022/02/13 01:11:46;;;;;;;10.25;5.22;;;1.70;92.70;;;;;;5042262;28;20115;-70
2022/02/13 01:14:12;;;;;;;9.23;4.88;;;1.70;92.70;;;;;;5025937;28;20052;-70
2022/02/13 01:16:38;;;;;;;11.93;5.97;;;1.70;92.70;;;;;;5042642;28;20462;-70
2022/02/13 01:19:04;;;;;;;11.40;5.20;;;1.70;92.70;;;;;;5039542;28;20041;-69
2022/02/13 01:21:30;;;;;;;9.20;4.53;;;1.70;92.70;;;;;;5037441;28;20477;-69
2022/02/13 01:23:56;;;;;;;12.05;5.55;;;1.70;92.80;;;;;;5034314;28;20056;-69
2022/02/13 01:26:23;;;;;;;11.38;5.30;;;1.70;92.80;;;;;;5044124;28;20113;-69
2022/02/13 01:28:49;;;;;;;12.35;5.50;;;1.60;92.80;;;;;;5049148;28;20045;-69
2022/02/13 01:31:15;;;;;;;11.90;5.50;;;1.60;92.80;;;;;;5045000;28;20071;-69
2022/02/13 01:33:41;;;;;;;13.05;5.18;;;1.60;92.80;;;;;;5039453;28;20466;-69
2022/02/13 01:36:08;;;;;;;8.95;5.13;;;1.60;92.90;;;;;;5037104;28;20048;-69
2022/02/13 01:38:34;;;;;;;9.15;4.95;;;1.60;93.10;;;;;;5041577;28;20052;-69
2022/02/13 01:40:59;;;;;;;9.73;5.65;;;1.50;93.00;;;;;;5036736;28;20037;-70
2022/02/13 01:43:25;;;;;;;9.15;5.30;;;1.50;93.00;;;;;;5041577;28;20464;-70
2022/02/13 01:45:51;;;;;;;11.10;5.85;;;1.50;93.20;;;;;;5054136;28;20037;-70
2022/02/13 01:48:17;;;;;;;10.63;4.82;;;1.40;93.20;;;;;;5039180;28;20063;-70
2022/02/13 01:50:45;;;;;;;11.85;5.43;;;1.40;93.20;;;;;;5038417;28;20434;-69
2022/02/13 01:53:12;;;;;;;8.98;5.40;;;1.40;93.50;;;;;;5042372;28;20040;-69
2022/02/13 01:55:37;;;;;;;8.95;5.25;;;1.40;93.40;;;;;;5028316;28;20065;-70
2022/02/13 01:58:04;;;;;;;10.93;5.13;;;1.30;93.40;;;;;;5042522;28;20047;-69
2022/02/13 02:00:30;;;;;;;10.68;4.47;;;1.40;93.50;;;;;;5042165;28;20047;-70
2022/02/13 02:02:56;;;;;;;14.52;5.25;;;1.30;93.40;;;;;;5035766;28;20420;-69
2022/02/13 02:05:21;;;;;;;10.10;5.82;;;1.30;93.50;;;;;;5042535;28;20045;-69
2022/02/13 02:07:47;;;;;;;10.73;6.03;;;1.30;93.50;;;;;;5043867;28;20493;-69
2022/02/13 02:10:19;;;;;;;10.35;5.10;;;1.20;93.60;;;;;;5026721;28;20065;-69
2022/02/13 02:12:45;;;;;;;13.27;5.70;;;1.20;93.70;;;;;;5041027;28;20060;-69
2022/02/13 02:15:10;;;;;;;11.35;5.55;;;1.20;93.70;;;;;;5038597;28;20116;-69
2022/02/13 02:17:36;;;;;;;11.07;5.93;;;1.20;93.90;;;;;;5041279;28;20090;-69
2022/02/13 02:20:02;;;;;;;9.70;5.55;;;1.20;93.90;;;;;;5038407;28;20310;-69
2022/02/13 02:22:28;;;;;;;12.10;6.35;;;1.20;93.90;;;;;;5052793;28;20501;-69
2022/02/13 02:24:54;;;;;;;11.80;5.43;;;1.20;94.00;;;;;;5039404;28;20037;-69
2022/02/13 02:27:19;;;;;;;9.07;4.78;;;1.20;94.10;;;;;;5037799;28;20543;-69
2022/02/13 02:29:45;;;;;;;9.43;5.97;;;1.20;94.10;;;;;;5023492;28;20058;-69
2022/02/13 02:32:11;;;;;;;11.02;5.18;;;1.20;94.10;;;;;;5040756;28;20051;-69
2022/02/13 02:34:41;;;;;;;14.75;6.18;;;1.20;94.40;;;;;;5042388;28;20110;-69
2022/02/13 02:37:08;;;;;;;9.70;5.80;;;1.20;94.20;;;;;;5037439;28;20076;-69
2022/02/13 02:39:34;;;;;;;9.77;4.88;;;1.10;94.10;;;;;;5043539;28;20083;-68
2022/02/13 02:42:00;;;;;;;13.48;6.25;;;1.20;94.30;;;;;;5036714;28;20109;-70
2022/02/13 02:44:26;;;;;;;14.32;6.50;;;1.20;94.20;;;;;;5040520;28;20412;-70
2022/02/13 02:46:52;;;;;;;12.85;5.95;;;1.10;94.40;;;;;;5036743;28;20033;-70
2022/02/13 02:49:18;;;;;;;10.90;5.50;;;1.10;94.30;;;;;;5024516;28;20041;-70
2022/02/13 02:51:44;;;;;;;10.02;6.18;;;1.10;94.40;;;;;;5025624;28;20044;-70
2022/02/13 02:54:10;;;;;;;13.55;5.57;;;1.10;94.70;;;;;;5042419;28;20078;-70
2022/02/13 02:56:36;;;;;;;12.93;5.95;;;1.10;94.50;;;;;;5037414;28;20741;-70
2022/02/13 02:59:01;;;;;;;14.25;5.82;;;1.00;94.40;;;;;;5026827;28;21090;-70
2022/02/13 03:01:27;;;;;;;12.63;6.00;;;1.00;94.70;;;;;;5040931;28;20559;-70
2022/02/13 03:03:53;;;;;;;10.25;5.75;;;1.00;94.60;;;;;;5037259;28;20041;-70
2022/02/13 03:06:18;;;;;;;10.55;5.68;;;1.00;94.60;;;;;;5042100;28;20162;-70
2022/02/13 03:08:44;;;;;;;11.10;5.75;;;1.00;94.60;;;;;;5045027;28;20045;-70
2022/02/13 03:11:10;;;;;;;11.82;5.30;;;0.90;94.80;;;;;;5039862;28;20045;-69
2022/02/13 03:13:36;;;;;;;10.88;5.70;;;1.00;94.80;;;;;;5033452;28;20114;-69
2022/02/13 03:16:02;;;;;;;11.52;5.93;;;0.90;94.80;;;;;;5045823;28;20474;-69
2022/02/13 03:18:30;;;;;;;9.70;5.88;;;1.00;95.00;;;;;;5035467;28;20037;-69
2022/02/13 03:20:58;;;;;;;14.45;6.80;;;0.90;95.00;;;;;;5041329;28;20100;-69
2022/02/13 03:23:24;;;;;;;9.98;5.82;;;0.90;95.10;;;;;;5033134;28;20059;-69
2022/02/13 03:25:52;;;;;;;12.60;5.80;;;0.90;95.00;;;;;;5034932;28;20041;-69
2022/02/13 03:28:18;;;;;;;11.50;5.80;;;0.90;95.00;;;;;;5048479;28;20044;-69
2022/02/13 03:30:45;;;;;;;9.90;5.50;;;0.90;95.00;;;;;;5022257;28;20045;-69
2022/02/13 03:33:11;;;;;;;9.50;6.32;;;0.80;95.10;;;;;;5036103;28;20044;-70
2022/02/13 03:35:37;;;;;;;10.32;6.18;;;0.80;95.10;;;;;;5025741;28;20061;-70
2022/02/13 03:38:04;;;;;;;10.75;5.88;;;0.80;95.30;;;;;;5041336;28;20052;-70
2022/02/13 03:40:30;;;;;;;11.15;5.85;;;0.80;95.20;;;;;;5028012;28;20048;-69
2022/02/13 03:42:56;;;;;;;12.35;6.38;;;0.80;95.30;;;;;;5021345;28;20037;-69
2022/02/13 03:45:22;;;;;;;12.48;6.35;;;0.80;95.50;;;;;;5041420;28;20505;-69
2022/02/13 03:47:47;;;;;;;13.52;6.00;;;0.80;95.50;;;;;;5038276;28;20052;-69
2022/02/13 03:50:14;;;;;;;9.82;6.47;;;0.80;95.40;;;;;;5041111;28;20512;-70
2022/02/13 03:52:40;;;;;;;10.45;6.63;;;0.70;95.50;;;;;;5023206;28;20129;-70
2022/02/13 03:55:07;;;;;;;12.25;5.80;;;0.70;95.50;;;;;;5040502;28;20438;-69
2022/02/13 03:57:33;;;;;;;10.90;6.32;;;0.70;95.70;;;;;;5041574;28;20492;-69
2022/02/13 03:59:59;;;;;;;9.60;6.18;;;0.70;95.60;;;;;;5041709;28;20048;-69
2022/02/13 04:02:25;;;;;;;13.30;5.93;;;0.70;95.60;;;;;;5041253;28;20025;-70
2022/02/13 04:04:51;;;;;;;12.13;6.80;;;0.70;95.70;;;;;;5046177;28;20060;-70
2022/02/13 04:07:17;;;;;;;11.88;6.22;;;0.60;95.90;;;;;;5042712;28;20049;-70
2022/02/13 04:09:43;;;;;;;10.80;6.95;;;0.60;95.80;;;;;;5040992;28;20057;-70
2022/02/13 04:12:09;;;;;;;11.77;6.90;;;0.60;95.70;;;;;;5040365;28;20116;-70
2022/02/13 04:14:35;;;;;;;11.95;6.22;;;0.60;95.90;;;;;;5038848;28;20536;-70
2022/02/13 04:17:01;;;;;;;14.23;6.40;;;0.60;95.80;;;;;;5044404;28;20397;-70
2022/02/13 04:19:27;;;;;;;13.40;6.13;;;0.50;96.00;;;;;;5023450;28;20037;-70
2022/02/13 04:21:53;;;;;;;12.85;6.90;;;0.50;96.10;;;;;;5043725;28;20037;-70
2022/02/13 04:24:19;;;;;;;10.05;6.35;;;0.50;96.20;;;;;;5044162;28;20075;-69
2022/02/13 04:26:45;;;;;;;12.95;6.65;;;0.50;96.00;;;;;;5039835;28;20101;-70
2022/02/13 04:29:11;;;;;;;15.65;6.60;;;0.50;96.20;;;;;;5044219;28;20090;-70
2022/02/13 04:31:37;;;;;;;13.25;6.72;;;0.50;96.30;;;;;;5040808;28;20053;-70
2022/02/13 04:34:07;;;;;;;14.75;6.65;;;0.50;96.50;;;;;;5041840;28;20387;-69
2022/02/13 04:36:36;;;;;;;11.73;6.55;;;0.40;96.40;;;;;;5044125;28;20102;-69
2022/02/13 04:39:04;;;;;;;12.05;6.22;;;0.50;96.40;;;;;;5044824;28;20135;-69
2022/02/13 04:41:30;;;;;;;10.02;6.75;;;0.40;96.40;;;;;;5027200;28;20053;-69
2022/02/13 04:43:56;;;;;;;11.68;6.32;;;0.40;96.40;;;;;;5039781;28;20136;-69
2022/02/13 04:46:22;;;;;;;8.38;6.20;;;0.40;96.70;;;;;;5042493;28;20041;-69
2022/02/13 04:48:47;;;;;;;15.13;6.60;;;0.40;96.70;;;;;;5041818;28;20083;-69
2022/02/13 04:51:13;;;;;;;14.43;6.38;;;0.40;96.70;;;;;;5056654;28;20053;-69
2022/02/13 04:53:39;;;;;;;10.73;6.28;;;0.40;96.60;;;;;;5038619;28;20068;-69
2022/02/13 04:56:05;;;;;;;10.90;6.93;;;0.40;96.60;;;;;;5042983;28;20068;-70
2022/02/13 04:58:32;;;;;;;14.02;7.10;;;0.30;96.70;;;;;;5043275;28;20183;-70
2022/02/13 05:00:58;;;;;;;10.18;6.70;;;0.30;96.60;;;;;;5039875;28;20052;-70
2022/02/13 05:03:24;;;;;;;12.20;6.18;;;0.30;96.80;;;;;;5041322;28;20041;-70
2022/02/13 05:05:53;;;;;;;10.77;6.40;;;0.30;96.70;;;;;;5044338;28;20042;-70
2022/02/13 05:08:19;;;;;;;11.93;6.22;;;0.30;96.80;;;;;;5043471;28;20490;-70
2022/02/13 05:10:45;;;;;;;11.63;6.65;;;0.30;96.90;;;;;;5042651;28;20409;-70
2022/02/13 05:13:11;;;;;;;9.40;6.00;;;0.30;96.80;;;;;;5039570;28;20041;-70
2022/02/13 05:15:37;;;;;;;12.40;6.43;;;0.30;96.80;;;;;;5041623;28;20097;-70
2022/02/13 05:18:03;;;;;;;10.43;6.13;;;0.20;97.00;;;;;;5041430;28;20049;-69
2022/02/13 05:20:29;;;;;;;13.80;6.75;;;0.20;96.90;;;;;;5042294;28;20068;-69
2022/02/13 05:22:55;;;;;;;14.38;6.88;;;0.30;97.00;;;;;;5041594;28;20072;-69
2022/02/13 05:25:21;;;;;;;11.90;6.28;;;0.20;97.10;;;;;;5037981;28;20048;-69
2022/02/13 05:27:47;;;;;;;11.55;6.40;;;0.30;97.10;;;;;;5039560;28;20562;-70
2022/02/13 05:30:13;;;;;;;10.38;6.45;;;0.30;97.10;;;;;;5037319;28;20076;-70
2022/02/13 05:32:39;;;;;;;13.73;6.72;;;0.20;97.10;;;;;;5044726;28;20037;-70
2022/02/13 05:35:05;;;;;;;12.68;6.40;;;0.30;97.30;;;;;;5039884;28;20625;-69
2022/02/13 05:37:31;;;;;;;12.52;5.95;;;0.20;97.20;;;;;;5043544;28;20044;-69
2022/02/13 05:39:57;;;;;;;13.25;7.25;;;0.30;97.30;;;;;;5042087;28;20044;-69
2022/02/13 05:42:24;;;;;;;9.27;6.68;;;0.20;97.70;;;;;;5040179;28;20480;-69
2022/02/13 05:44:54;;;;;;;10.32;6.80;;;0.20;97.30;;;;;;5039958;28;20047;-69
2022/02/13 05:47:20;;;;;;;12.88;6.60;;;0.20;97.30;;;;;;5042505;28;20099;-69
2022/02/13 05:49:46;;;;;;;9.38;6.18;;;0.20;97.60;;;;;;5041346;28;20075;-69
2022/02/13 05:52:12;;;;;;;11.75;6.28;;;0.20;97.50;;;;;;5040383;28;20074;-69
2022/02/13 05:54:38;;;;;;;9.00;6.22;;;0.20;97.70;;;;;;5040970;28;20072;-69
2022/02/13 05:57:04;;;;;;;11.57;6.72;;;0.20;97.70;;;;;;5037716;28;20083;-69
2022/02/13 05:59:31;;;;;;;13.55;6.78;;;0.20;97.70;;;;;;5038359;28;20163;-69
2022/02/13 06:01:56;;;;;;;9.93;5.88;;;0.20;98.10;;;;;;5039119;28;20399;-69
2022/02/13 06:04:23;;;;;;;10.15;6.28;;;0.20;97.80;;;;;;5039218;28;20028;-69
2022/02/13 06:06:51;;;;;;;15.27;6.70;;;0.30;97.80;;;;;;5041575;28;20033;-69
2022/02/13 06:09:18;;;;;;;9.25;5.40;;;0.30;97.90;;;;;;5040727;28;20048;-69
2022/02/13 06:11:43;;;;;;;10.70;6.22;;;0.20;97.80;;;;;;5038447;28;20452;-69
2022/02/13 06:14:10;;;;;;;10.93;5.93;;;0.20;97.90;;;;;;5040626;28;20052;-69
2022/02/13 06:16:35;;;;;;;8.20;5.78;;;0.20;97.90;;;;;;5036850;28;20076;-69
2022/02/13 06:19:01;;;;;;;13.82;6.32;;;0.20;97.80;;;;;;5040872;28;20129;-70
2022/02/13 06:21:27;;;;;;;10.95;5.70;;;0.30;97.90;;;;;;5021742;28;20128;-70
2022/02/13 06:23:52;;;;;;;11.88;6.40;;;0.20;97.90;;;;;;5038913;28;20049;-70
2022/02/13 06:26:19;;;;;;;12.52;6.32;;;0.20;98.10;;;;;;5022795;28;20059;-70
2022/02/13 06:28:44;;;;;;;9.43;6.32;;;0.20;98.00;;;;;;5036771;28;20033;-70
2022/02/13 06:31:12;;;;;;;11.88;5.90;;;0.30;97.90;;;;;;5039697;28;20056;-70
2022/02/13 06:33:38;;;;;;;9.07;6.07;;;0.30;97.90;;;;;;5052741;28;20053;-69
2022/02/13 06:36:04;;;;;;;9.18;5.72;;;0.30;97.90;;;;;;5040284;28;20531;-69
2022/02/13 06:38:29;;;;;;;11.77;6.05;;;0.30;98.00;;;;;;5039576;28;20037;-69
2022/02/13 06:40:55;;;;;;;7.55;5.65;;;0.30;98.00;;;;;;5041810;28;20052;-69
2022/02/13 06:43:21;;;;;;;9.32;5.82;;;0.30;97.90;;;;;;5022130;28;20049;-70
2022/02/13 06:45:46;;;;;;;9.70;5.40;;;0.40;98.00;;;;;;5036633;28;20440;-70
2022/02/13 06:48:12;;;;;;;11.07;6.40;;;0.40;98.10;;;;;;5041202;28;20045;-70
2022/02/13 06:50:38;;;;;;;12.15;6.15;;;0.40;98.00;;;;;;5037732;28;20337;-70
2022/02/13 06:53:04;;;;;;;8.75;5.85;;;0.40;98.60;;;;;;5038780;28;20075;-70
2022/02/13 06:55:30;;;;;;;11.38;6.28;;;0.50;98.30;;;;;;5039938;28;20118;-70
2022/02/13 06:57:56;;;;;;;9.77;5.57;;;0.60;98.20;;;;;;5038396;28;20041;-70
2022/02/13 07:00:22;;;;;;;10.15;6.00;;;0.60;98.20;;;;;;5018968;28;20124;-70
2022/02/13 07:02:48;;;;;;;9.52;5.80;;;0.70;98.10;;;;;;5035328;28;20033;-70
2022/02/13 07:05:14;;;;;;;12.18;6.03;;;0.80;98.00;;;;;;5037726;28;20130;-70
2022/02/13 07:07:41;;;;;;;9.75;6.45;;;0.80;98.00;;;;;;5024278;28;20085;-70
2022/02/13 07:10:09;;;;;;;10.48;5.68;;;0.90;98.00;;;;;;5022072;28;20052;-70
2022/02/13 07:12:36;;;;;;;8.20;5.90;;;0.90;98.10;;;;;;5035326;28;20072;-70
2022/02/13 07:15:02;;;;;;;8.73;5.40;;;0.90;98.00;;;;;;5046127;28;20052;-70
2022/02/13 07:17:27;;;;;;;9.70;5.43;;;1.00;98.00;;;;;;5039363;28;20045;-70
2022/02/13 07:19:53;;;;;;;9.85;6.22;;;1.00;98.00;;;;;;5028097;28;20051;-70
2022/02/13 07:22:19;;;;;;;7.25;5.47;;;1.10;98.00;;;;;;5038023;28;20033;-70
2022/02/13 07:24:45;;;;;;;10.20;5.47;;;1.20;98.00;;;;;;5035726;28;20037;-70
2022/02/13 07:27:10;;;;;;;8.73;5.45;;;1.20;97.90;;;;;;5037843;28;20044;-70
2022/02/13 07:29:36;;;;;;;9.27;6.00;;;1.30;97.80;;;;;;5036422;28;20120;-70
2022/02/13 07:32:03;;;;;;;8.70;5.57;;;1.40;97.70;;;;;;5034423;28;20052;-69
2022/02/13 07:34:30;;;;;;;9.82;5.53;;;1.50;97.60;;;;;;5021331;28;20049;-69
2022/02/13 07:37:01;;;;;;;14.23;5.55;;;1.60;97.60;;;;;;5035411;28;20045;-69
2022/02/13 07:39:32;;;;;;;9.77;5.78;;;1.70;97.50;;;;;;5040652;28;20041;-70
2022/02/13 07:41:59;;;;;;;8.02;5.47;;;1.90;97.40;;;;;;5035204;28;20048;-70
2022/02/13 07:44:26;;;;;;;7.90;5.28;;;2.20;97.30;;;;;;5036353;28;20037;-70
2022/02/13 07:46:52;;;;;;;8.40;5.90;;;2.40;96.80;;;;;;5022546;28;20288;-70
2022/02/13 07:49:18;;;;;;;10.35;5.70;;;2.50;96.40;;;;;;5034412;28;20099;-70
2022/02/13 07:51:44;;;;;;;7.03;4.78;;;2.50;96.10;;;;;;5038195;28;20291;-70
2022/02/13 07:54:10;;;;;;;7.60;5.40;;;2.50;95.70;;;;;;5032963;28;20060;-70
2022/02/13 07:56:36;;;;;;;7.50;5.70;;;2.40;95.70;;;;;;5036752;28;20044;-70
2022/02/13 07:59:03;;;;;;;8.00;5.53;;;2.30;95.80;;;;;;5037900;28;20048;-69
2022/02/13 08:01:29;;;;;;;8.63;5.00;;;2.30;95.90;;;;;;5031589;28;20045;-69
2022/02/13 08:03:54;;;;;;;7.57;4.85;;;2.30;95.90;;;;;;5040364;28;20049;-69
2022/02/13 08:06:20;;;;;;;6.85;4.80;;;2.30;96.00;;;;;;5045585;28;20033;-69
2022/02/13 08:08:48;;;;;;;9.52;4.75;;;2.30;96.00;;;;;;5037950;28;20040;-68
2022/02/13 08:11:15;;;;;;;9.07;4.90;;;2.30;95.80;;;;;;5040248;28;20037;-68
2022/02/13 08:13:40;;;;;;;7.20;5.32;;;2.40;95.90;;;;;;5023040;28;20519;-69
2022/02/13 08:16:06;;;;;;;6.18;5.00;;;2.40;95.90;;;;;;5036839;28;20056;-69
2022/02/13 08:18:33;;;;;;;7.75;5.45;;;2.40;96.00;;;;;;5041455;28;20048;-69
2022/02/13 08:20:59;;;;;;;7.63;5.20;;;2.50;95.80;;;;;;5025824;28;20037;-69
2022/02/13 08:23:26;;;;;;;7.22;5.10;;;2.50;95.60;;;;;;5044386;28;20537;-68
2022/02/13 08:25:52;;;;;;;8.48;5.20;;;2.60;95.60;;;;;;5041520;28;20095;-68
2022/02/13 08:28:18;;;;;;;7.78;4.53;;;2.60;95.50;;;;;;5038655;28;20134;-69
2022/02/13 08:30:44;;;;;;;8.57;5.40;;;2.60;95.60;;;;;;5038073;28;20090;-69
2022/02/13 08:33:10;;;;;;;7.13;4.97;;;2.60;95.50;;;;;;5036999;28;20444;-69
2022/02/13 08:35:36;;;;;;;8.15;5.50;;;2.70;95.60;;;;;;5033871;28;20057;-69
2022/02/13 08:38:05;;;;;;;9.52;5.15;;;2.80;95.50;;;;;;5039078;28;20535;-69
2022/02/13 08:40:32;;;;;;;9.48;5.10;;;2.80;95.40;;;;;;5035637;28;20184;-69
2022/02/13 08:43:01;;;;;;;7.15;4.95;;;2.90;95.40;;;;;;5037668;28;20130;-69
2022/02/13 08:45:28;;;;;;;8.60;5.32;;;3.10;95.20;;;;;;5039179;28;20044;-69
2022/02/13 08:47:54;;;;;;;6.70;5.00;;;3.40;95.20;;;;;;5019150;28;20076;-69
2022/02/13 08:50:20;;;;;;;9.75;5.78;;;3.80;94.80;;;;;;5042910;28;20045;-69
2022/02/13 08:52:45;;;;;;;9.32;5.10;;;4.00;94.30;;;;;;5044476;28;20049;-69
2022/02/13 08:55:14;;;;;;;7.13;5.07;;;4.00;93.70;;;;;;5043670;28;20036;-69
2022/02/13 08:57:43;;;;;;;6.40;4.68;;;4.00;93.90;;;;;;5041402;28;20482;-70
2022/02/13 09:00:11;;;;;;;7.28;4.70;;;4.00;93.70;;;;;;5044780;28;20036;-70
2022/02/13 09:02:41;;;;;;;7.20;4.68;;;4.00;93.90;;;;;;5040272;28;20049;-70
2022/02/13 09:05:07;;;;;;;7.22;4.50;;;4.00;93.70;;;;;;5039879;28;20401;-70
2022/02/13 09:07:40;;;;;;;7.72;5.00;;;4.00;93.70;;;;;;5041306;28;20048;-70
2022/02/13 09:10:08;;;;;;;6.28;4.57;;;4.00;93.70;;;;;;5039467;28;20516;-70
2022/02/13 09:12:34;;;;;;;9.43;5.40;;;4.00;93.70;;;;;;5041902;28;20476;-69
2022/02/13 09:14:59;;;;;;;8.32;4.97;;;4.00;93.50;;;;;;5045460;28;20037;-69
2022/02/13 09:17:25;;;;;;;9.52;5.10;;;4.10;93.60;;;;;;5044365;28;20053;-69
2022/02/13 09:19:51;;;;;;;7.63;4.97;;;4.20;93.40;;;;;;5037780;28;20106;-69
2022/02/13 09:22:16;;;;;;;8.00;4.97;;;4.30;93.10;;;;;;5053194;28;20045;-70
2022/02/13 09:24:42;;;;;;;7.88;5.28;;;4.40;92.90;;;;;;5040373;28;20155;-69
2022/02/13 09:27:09;;;;;;;6.18;4.55;;;4.50;92.80;;;;;;5038761;28;20131;-69
2022/02/13 09:29:35;;;;;;;7.50;4.95;;;4.70;92.70;;;;;;5044550;28;20174;-69
2022/02/13 09:32:00;;;;;;;8.55;4.90;;;4.70;92.90;;;;;;5045091;28;20136;-69
2022/02/13 09:34:28;;;;;;;7.50;4.82;;;4.80;92.80;;;;;;5039556;28;20440;-69
2022/02/13 09:36:55;;;;;;;9.35;5.70;;;4.90;92.80;;;;;;5042215;28;20061;-69
2022/02/13 09:39:21;;;;;;;8.82;5.20;;;5.00;92.50;;;;;;5040724;28;20420;-69
2022/02/13 09:41:48;;;;;;;6.88;4.72;;;5.00;92.10;;;;;;5045698;28;20052;-69
2022/02/13 09:44:14;;;;;;;8.02;4.70;;;4.90;92.30;;;;;;5042163;28;20048;-69
2022/02/13 09:46:41;;;;;;;5.78;4.72;;;4.80;92.00;;;;;;5036462;28;20046;-69
2022/02/13 09:49:07;;;;;;;7.53;4.57;;;4.80;92.10;;;;;;5044076;28;20088;-69
2022/02/13 09:51:34;;;;;;;6.90;4.43;;;4.70;92.10;;;;;;5036501;28;20045;-70
2022/02/13 09:54:01;;;;;;;8.82;5.15;;;4.70;92.00;;;;;;5040200;28;20048;-70
2022/02/13 09:56:27;;;;;;;6.85;4.18;;;4.70;92.20;;;;;;5041779;28;20053;-69
2022/02/13 09:58:54;;;;;;;8.07;4.65;;;4.60;92.40;;;;;;5024718;28;20174;-69
2022/02/13 10:01:32;;;;;;;9.32;5.10;;;4.70;92.20;;;;;;5024110;28;20048;-69
2022/02/13 10:03:58;;;;;;;6.70;4.90;;;4.70;92.20;;;;;;5043107;28;20045;-69
2022/02/13 10:06:25;;;;;;;6.78;4.38;;;4.70;92.40;;;;;;5039571;28;20041;-69
2022/02/13 10:08:53;;;;;;;6.20;4.43;;;4.80;92.20;;;;;;5038085;28;20551;-69
2022/02/13 10:11:33;;;;;;;6.75;4.15;;;4.80;92.30;;;;;;5040129;28;20183;-69
2022/02/13 10:13:59;;;;;;;8.10;4.68;;;4.80;92.20;;;;;;5034832;28;20130;-69
2022/02/13 10:16:27;;;;;;;7.45;4.97;;;5.00;92.40;;;;;;5039826;28;20493;-69
2022/02/13 10:19:09;;;;;;;10.68;5.68;;;5.20;92.20;;;;;;5039160;28;20053;-70
2022/02/13 10:21:39;;;;;;;7.28;4.60;;;5.40;91.70;;;;;;5041892;28;20296;-70
2022/02/13 10:24:27;;;;;;;7.40;5.07;;;5.50;91.60;;;;;;5040051;28;20041;-70
2022/02/13 10:27:11;;;;;;;5.93;4.38;;;5.50;91.60;;;;;;5039380;28;20057;-69
2022/02/13 10:29:39;;;;;;;4.97;4.30;;;5.50;91.30;;;;;;5039225;28;20060;-69
2022/02/13 10:32:20;;;;;;;6.40;4.60;;;5.60;91.20;;;;;;5046577;28;20102;-70
2022/02/13 10:35:10;;;;;;;8.50;5.22;;;5.70;91.20;;;;;;5041489;28;20132;-70
2022/02/13 10:37:58;;;;;;;6.88;4.68;;;5.80;91.10;;;;;;5054084;28;20051;-70
2022/02/13 10:40:28;;;;;;;6.25;4.28;;;5.90;90.90;;;;;;5039593;28;20092;-70
2022/02/13 10:43:09;;;;;;;9.43;4.80;;;6.00;91.00;;;;;;5038788;28;20254;-70
2022/02/13 10:45:40;;;;;;;6.70;4.60;;;6.10;90.60;;;;;;5035579;28;20114;-70
2022/02/13 10:48:07;;;;;;;7.45;4.28;;;6.00;90.80;;;;;;5041541;28;20607;-70
2022/02/13 10:50:35;;;;;;;6.20;4.90;;;6.00;90.30;;;;;;5055481;28;20183;-70
2022/02/13 10:53:03;;;;;;;8.25;4.57;;;6.00;90.30;;;;;;5040483;28;20049;-70
2022/02/13 10:55:31;;;;;;;8.40;5.65;;;6.00;90.40;;;;;;5037390;28;20611;-70
2022/02/13 10:57:58;;;;;;;5.85;4.32;;;6.00;90.50;;;;;;5041124;28;20072;-71
2022/02/13 11:00:30;;;;;;;6.25;4.35;;;6.10;90.60;;;;;;5037916;28;20376;-71
2022/02/13 11:03:04;;;;;;;6.97;4.30;;;6.20;90.40;;;;;;5035147;28;20041;-71
2022/02/13 11:05:30;;;;;;;5.60;4.10;;;6.30;90.50;;;;;;5038644;28;20033;-71
2022/02/13 11:08:03;;;;;;;9.00;5.40;;;6.30;90.60;;;;;;5038001;28;20115;-70
2022/02/13 11:10:36;;;;;;;5.63;4.57;;;6.30;90.40;;;;;;5038084;28;20405;-70
2022/02/13 11:13:03;;;;;;;8.20;4.83;;;6.40;90.10;;;;;;5054969;28;20056;-70
2022/02/13 11:15:31;;;;;;;6.10;4.53;;;6.40;90.00;;;;;;5037355;28;20041;-70
2022/02/13 11:18:06;;;;;;;6.28;4.78;;;6.40;90.20;;;;;;5037789;28;20052;-70
2022/02/13 11:20:33;;;;;;;6.55;4.22;;;6.50;90.00;;;;;;5037409;28;20045;-71
2022/02/13 11:23:29;;;;;;;9.40;4.95;;;6.60;90.00;;;;;;5040858;28;20716;-71
2022/02/13 11:26:07;;;;;;;6.20;4.60;;;6.90;89.50;;;;;;5037783;28;20458;-71
2022/02/13 11:28:42;;;;;;;5.70;4.68;;;7.50;88.80;;;;;;5038551;28;20053;-71
2022/02/13 11:31:28;;;;;;;6.53;4.65;;;7.90;87.90;;;;;;5037412;28;20449;-71
2022/02/13 11:33:54;;;;;;;5.95;4.22;;;8.20;86.60;;;;;;5041236;28;20093;-71
2022/02/13 11:36:20;;;;;;;6.30;4.25;;;8.40;86.30;;;;;;5037557;28;20417;-72
2022/02/13 11:38:46;;;;;;;5.93;4.45;;;8.70;85.10;;;;;;5036478;28;20044;-72
2022/02/13 11:41:16;;;;;;;7.57;5.03;;;9.20;83.80;;;;;;5039430;28;20044;-71
2022/02/13 11:43:45;;;;;;;7.78;5.30;;;9.40;83.70;;;;;;5040180;28;20052;-71
2022/02/13 11:46:35;;;;;;;6.47;4.45;;;9.50;83.30;;;;;;5038865;28;20041;-71
2022/02/13 11:49:08;;;;;;;5.72;4.25;;;9.40;83.50;;;;;;5038311;28;20065;-70
2022/02/13 11:51:45;;;;;;;5.75;4.30;;;9.10;82.40;;;;;;5039878;28;20061;-71
2022/02/13 11:54:40;;;;;;;5.70;4.20;;;8.90;81.60;;;;;;5039115;28;20036;-70
2022/02/13 11:57:20;;;;;;;5.35;4.40;;;8.60;83.10;;;;;;5036368;28;20061;-71
2022/02/13 11:59:51;;;;;;;7.00;4.60;;;8.50;83.20;;;;;;5037587;28;20033;-70
2022/02/13 12:02:35;;;;;;;8.73;4.55;;;8.40;82.30;;;;;;5035638;28;20071;-71
2022/02/13 12:05:07;;;;;;;4.43;3.97;;;8.30;82.70;;;;;;5036445;28;20064;-71
2022/02/13 12:07:58;;;;;;;6.57;4.45;;;8.20;83.00;;;;;;5036175;28;20053;-71
2022/02/13 12:10:36;;;;;;;5.75;4.18;;;8.20;83.80;;;;;;5023730;28;20136;-71
2022/02/13 12:13:11;;;;;;;7.57;3.67;;;8.20;84.10;;;;;;5039965;28;20481;-71
2022/02/13 12:15:38;;;;;;;5.35;3.80;;;8.30;82.20;;;;;;5036729;28;20494;-71
2022/02/13 12:18:14;;;;;;;4.93;3.88;;;8.20;82.20;;;;;;5037503;28;20091;-71
2022/02/13 12:20:42;;;;;;;8.10;4.50;;;8.20;81.60;;;;;;5040386;28;20408;-71
2022/02/13 12:23:13;;;;;;;6.80;4.05;;;8.20;81.80;;;;;;5039632;28;20124;-71
2022/02/13 12:25:42;;;;;;;6.57;4.53;;;8.20;81.90;;;;;;5044977;28;20469;-71
2022/02/13 12:28:11;;;;;;;4.57;3.65;;;8.30;81.40;;;;;;5042870;28;20064;-71
2022/02/13 12:30:37;;;;;;;5.25;3.67;;;8.30;80.70;;;;;;5049262;28;20088;-71
2022/02/13 12:33:05;;;;;;;4.85;3.90;;;8.30;80.00;;;;;;5044503;28;20087;-71
2022/02/13 12:35:35;;;;;;;5.13;3.70;;;8.20;79.70;;;;;;5040332;28;20073;-71
2022/02/13 12:38:03;;;;;;;4.38;3.90;;;8.20;79.10;;;;;;5040678;28;20033;-71
2022/02/13 12:40:31;;;;;;;6.60;4.13;;;8.30;79.80;;;;;;5042861;28;20095;-71
2022/02/13 12:43:03;;;;;;;6.22;4.70;;;8.30;80.40;;;;;;5026876;28;20045;-71
2022/02/13 12:45:30;;;;;;;5.13;3.83;;;8.30;81.40;;;;;;5043688;28;20330;-70
2022/02/13 12:47:59;;;;;;;5.00;3.92;;;8.40;81.00;;;;;;5045159;28;20041;-69
2022/02/13 12:50:32;;;;;;;4.95;3.70;;;8.30;79.90;;;;;;5037907;28;20085;-70
2022/02/13 12:53:04;;;;;;;5.05;3.78;;;8.30;79.90;;;;;;5043838;28;20123;-70
2022/02/13 12:55:32;;;;;;;6.90;4.15;;;8.30;80.00;;;;;;5055945;28;20128;-72